createdAt,value
2022-07-28T00:00:41.337Z,94952.13
2022-07-28T00:03:07.996Z,94951.06
2022-07-28T00:05:34.745Z,94963.69
2022-07-28T00:08:01.422Z,94957.78
2022-07-28T00:10:28.220Z,94939.34
2022-07-28T00:12:54.913Z,94947.97
2022-07-28T00:15:21.539Z,94955.72
2022-07-28T00:17:48.099Z,94963.06
2022-07-28T00:20:14.727Z,94958.94
2022-07-28T00:22:42.967Z,94966.00
2022-07-28T00:25:10.553Z,94945.81
2022-07-28T00:27:37.931Z,94958.59
2022-07-28T00:30:08.354Z,94944.81
2022-07-28T00:32:35.051Z,94948.41
2022-07-28T00:35:02.409Z,94949.53
2022-07-28T00:37:29.260Z,94951.88
2022-07-28T00:39:56.202Z,94935.09
2022-07-28T00:42:22.947Z,94932.06
2022-07-28T00:44:49.753Z,94938.44
2022-07-28T00:47:16.596Z,94928.53
2022-07-28T00:49:45.343Z,94947.53
2022-07-28T00:52:13.301Z,94945.53
2022-07-28T00:54:40.333Z,94940.22
2022-07-28T00:57:06.918Z,94938.66
2022-07-28T00:59:33.851Z,94949.19
2022-07-28T01:02:01.673Z,94925.16
2022-07-28T01:04:28.890Z,94920.69
2022-07-28T01:07:20.757Z,94945.72
2022-07-28T01:09:59.831Z,94947.88
2022-07-28T01:13:09.601Z,94943.38
2022-07-28T01:15:48.962Z,94935.50
2022-07-28T01:18:20.503Z,94931.22
2022-07-28T01:20:52.869Z,94944.56
2022-07-28T01:23:31.370Z,94938.28
2022-07-28T01:26:32.266Z,94939.34
2022-07-28T01:29:37.024Z,94940.44
2022-07-28T01:32:08.363Z,94929.38
2022-07-28T01:35:00.551Z,94929.00
2022-07-28T01:37:32.532Z,94933.38
2022-07-28T01:40:03.171Z,94939.44
2022-07-28T01:42:35.844Z,94930.69
2022-07-28T01:45:04.184Z,94927.38
2022-07-28T01:47:32.213Z,94922.88
2022-07-28T01:50:04.585Z,94927.00
2022-07-28T01:52:32.493Z,94912.44
2022-07-28T01:55:02.570Z,94931.59
2022-07-28T01:57:32.701Z,94940.69
2022-07-28T02:00:01.035Z,94910.34
2022-07-28T02:02:31.112Z,94927.38
2022-07-28T02:05:00.210Z,94908.84
2022-07-28T02:07:28.906Z,94927.59
2022-07-28T02:09:57.637Z,94921.06
2022-07-28T02:12:26.275Z,94930.56
2022-07-28T02:14:54.895Z,94912.03
2022-07-28T02:17:28.062Z,94905.56
2022-07-28T02:19:56.935Z,94912.03
2022-07-28T02:22:27.062Z,94928.81
2022-07-28T02:24:55.667Z,94927.75
2022-07-28T02:27:38.742Z,94922.50
2022-07-28T02:30:14.558Z,94922.50
2022-07-28T02:32:53.910Z,94922.94
2022-07-28T02:35:39.815Z,94921.97
2022-07-28T02:38:15.068Z,94922.31
2022-07-28T02:40:44.311Z,94925.94
2022-07-28T02:43:15.877Z,94938.53
2022-07-28T02:45:46.265Z,94921.69
2022-07-28T02:48:17.482Z,94932.78
2022-07-28T02:50:46.599Z,94914.00
2022-07-28T02:53:16.286Z,94914.22
2022-07-28T02:55:46.378Z,94918.28
2022-07-28T02:58:15.665Z,94924.44
2022-07-28T03:00:43.432Z,94934.69
2022-07-28T03:03:11.421Z,94914.84
2022-07-28T03:05:40.387Z,94924.66
2022-07-28T03:08:07.407Z,94922.63
2022-07-28T03:10:34.860Z,94917.47
2022-07-28T03:13:03.819Z,94939.00
2022-07-28T03:15:31.111Z,94934.31
2022-07-28T03:17:58.391Z,94947.84
2022-07-28T03:20:25.290Z,94925.59
2022-07-28T03:22:51.867Z,94940.56
2022-07-28T03:25:32.747Z,94954.13
2022-07-28T03:28:00.931Z,94942.56
2022-07-28T03:30:32.176Z,94940.72
2022-07-28T03:33:02.908Z,94942.56
2022-07-28T03:35:33.055Z,94911.22
2022-07-28T03:38:04.535Z,94959.72
2022-07-28T03:40:33.022Z,94944.69
2022-07-28T03:43:03.614Z,94948.59
2022-07-28T03:45:32.888Z,94958.69
2022-07-28T03:47:59.463Z,94954.00
2022-07-28T03:50:30.918Z,94950.00
2022-07-28T03:52:58.784Z,94949.03
2022-07-28T03:55:26.368Z,94968.34
2022-07-28T03:57:53.128Z,94946.59
2022-07-28T04:00:21.090Z,94950.09
2022-07-28T04:02:47.764Z,94936.16
2022-07-28T04:05:16.287Z,94968.38
2022-07-28T04:07:44.240Z,94965.38
2022-07-28T04:10:13.973Z,94959.16
2022-07-28T04:12:55.048Z,94964.66
2022-07-28T04:15:22.902Z,94959.50
2022-07-28T04:17:50.825Z,94962.47
2022-07-28T04:20:18.906Z,94962.03
2022-07-28T04:22:46.436Z,94956.63
2022-07-28T04:25:14.238Z,94977.25
2022-07-28T04:27:42.737Z,94969.94
2022-07-28T04:30:17.118Z,94986.94
2022-07-28T04:32:49.526Z,94963.63
2022-07-28T04:35:18.051Z,94986.19
2022-07-28T04:37:46.048Z,94979.38
2022-07-28T04:40:13.737Z,94960.63
2022-07-28T04:42:41.168Z,94962.13
2022-07-28T04:45:09.681Z,94978.22
2022-07-28T04:47:37.078Z,94964.81
2022-07-28T04:50:05.725Z,94973.69
2022-07-28T04:52:33.883Z,94987.78
2022-07-28T04:55:01.005Z,94983.63
2022-07-28T04:57:29.905Z,94986.13
2022-07-28T04:59:57.445Z,94985.84
2022-07-28T05:02:24.329Z,94993.97
2022-07-28T05:04:51.261Z,94989.19
2022-07-28T05:07:18.218Z,94995.31
2022-07-28T05:09:44.993Z,94990.31
2022-07-28T05:12:11.766Z,94983.25
2022-07-28T05:14:38.353Z,94991.50
2022-07-28T05:17:05.012Z,94996.41
2022-07-28T05:19:31.619Z,94990.84
2022-07-28T05:21:58.214Z,94991.50
2022-07-28T05:24:24.926Z,94991.38
2022-07-28T05:26:51.671Z,94988.22
2022-07-28T05:29:18.286Z,94981.50
2022-07-28T05:31:44.992Z,94979.63
2022-07-28T05:34:11.957Z,94990.47
2022-07-28T05:36:39.131Z,94990.75
2022-07-28T05:39:05.679Z,94970.59
2022-07-28T05:41:32.530Z,94986.78
2022-07-28T05:44:01.275Z,94988.09
2022-07-28T05:46:28.424Z,94987.59
2022-07-28T05:48:55.158Z,94981.06
2022-07-28T05:51:22.051Z,94973.94
2022-07-28T05:53:48.663Z,94981.41
2022-07-28T05:56:15.430Z,94979.78
2022-07-28T05:58:42.085Z,94980.00
2022-07-28T06:01:08.833Z,94974.41
2022-07-28T06:03:41.504Z,94981.97
2022-07-28T06:06:15.600Z,94978.38
2022-07-28T06:08:44.414Z,94958.44
2022-07-28T06:11:11.888Z,94971.53
2022-07-28T06:13:46.776Z,94969.47
2022-07-28T06:16:13.632Z,94968.88
2022-07-28T06:18:40.503Z,94975.00
2022-07-28T06:21:07.151Z,94972.16
2022-07-28T06:23:33.956Z,94980.34
2022-07-28T06:26:00.830Z,94964.59
2022-07-28T06:28:27.484Z,94974.91
2022-07-28T06:30:54.250Z,94973.13
2022-07-28T06:33:20.938Z,94971.03
2022-07-28T06:35:51.320Z,94971.03
2022-07-28T06:38:20.476Z,94968.38
2022-07-28T06:40:48.499Z,94977.88
2022-07-28T06:43:15.234Z,94971.19
2022-07-28T06:45:41.884Z,94964.94
2022-07-28T06:48:08.916Z,94965.97
2022-07-28T06:50:39.365Z,94958.22
2022-07-28T06:53:06.486Z,94963.56
2022-07-28T06:55:35.408Z,94960.13
2022-07-28T06:58:03.501Z,94963.81
2022-07-28T07:00:30.599Z,94971.88
2022-07-28T07:02:57.364Z,94974.53
2022-07-28T07:05:24.159Z,94973.06
2022-07-28T07:07:50.752Z,94975.09
2022-07-28T07:10:17.651Z,94958.47
2022-07-28T07:12:44.320Z,94966.34
2022-07-28T07:15:11.477Z,94964.97
2022-07-28T07:17:38.461Z,94965.88
2022-07-28T07:20:06.738Z,94961.28
2022-07-28T07:22:33.747Z,94962.94
2022-07-28T07:25:17.074Z,94972.84
2022-07-28T07:27:44.849Z,94967.63
2022-07-28T07:30:12.661Z,94966.44
2022-07-28T07:32:39.747Z,94966.44
2022-07-28T07:35:07.127Z,94961.72
2022-07-28T07:37:33.711Z,94966.81
2022-07-28T07:40:01.472Z,94970.09
2022-07-28T07:42:28.336Z,94957.91
2022-07-28T07:44:55.530Z,94965.75
2022-07-28T07:47:22.398Z,94945.38
2022-07-28T07:49:49.450Z,94956.59
2022-07-28T07:52:16.137Z,94949.69
2022-07-28T07:54:43.142Z,94948.38
2022-07-28T07:57:10.548Z,94966.13
2022-07-28T07:59:37.218Z,94952.97
2022-07-28T08:02:04.209Z,94949.56
2022-07-28T08:04:31.097Z,94955.56
2022-07-28T08:06:57.745Z,94953.13
2022-07-28T08:09:25.051Z,94954.22
2022-07-28T08:11:51.855Z,94948.28
2022-07-28T08:14:18.833Z,94953.31
2022-07-28T08:16:45.623Z,94943.59
2022-07-28T08:19:12.422Z,94934.78
2022-07-28T08:21:39.219Z,94940.28
2022-07-28T08:24:06.239Z,94930.00
2022-07-28T08:26:33.295Z,94932.53
2022-07-28T08:28:59.919Z,94941.16
2022-07-28T08:31:26.732Z,94941.63
2022-07-28T08:33:54.746Z,94940.19
2022-07-28T08:36:22.287Z,94939.16
2022-07-28T08:38:48.903Z,94937.88
2022-07-28T08:41:44.301Z,94942.09
2022-07-28T08:44:16.083Z,94944.28
2022-07-28T08:46:44.275Z,94942.66
2022-07-28T08:49:12.879Z,94936.19
2022-07-28T08:51:42.928Z,94946.47
2022-07-28T08:54:15.535Z,94948.88
2022-07-28T08:56:48.128Z,94945.91
2022-07-28T08:59:15.366Z,94946.31
2022-07-28T09:01:42.504Z,94948.22
2022-07-28T09:04:10.085Z,94947.78
2022-07-28T09:06:42.361Z,94946.03
2022-07-28T09:09:10.130Z,94945.56
2022-07-28T09:11:40.134Z,94949.31
2022-07-28T09:14:07.132Z,94946.41
2022-07-28T09:16:34.009Z,94946.25
2022-07-28T09:19:00.680Z,94939.53
2022-07-28T09:21:27.640Z,94940.50
2022-07-28T09:23:54.570Z,94948.59
2022-07-28T09:26:21.164Z,94952.22
2022-07-28T09:28:57.434Z,94946.47
2022-07-28T09:31:25.942Z,94948.66
2022-07-28T09:34:01.070Z,94950.53
2022-07-28T09:36:29.758Z,94944.28
2022-07-28T09:38:56.986Z,94948.84
2022-07-28T09:41:24.172Z,94940.78
2022-07-28T09:43:55.217Z,94944.50
2022-07-28T09:46:24.826Z,94937.88
2022-07-28T09:48:55.887Z,94929.22
2022-07-28T09:51:27.884Z,94933.91
2022-07-28T09:54:07.694Z,94936.59
2022-07-28T09:56:34.793Z,94894.00
2022-07-28T09:59:03.458Z,94918.00
2022-07-28T10:01:33.375Z,94923.03
2022-07-28T10:04:03.824Z,94919.41
2022-07-28T10:06:34.494Z,94917.38
2022-07-28T10:09:03.400Z,94917.19
2022-07-28T10:11:31.027Z,94909.25
2022-07-28T10:14:03.214Z,94907.41
2022-07-28T10:16:34.490Z,94911.75
2022-07-28T10:19:04.604Z,94906.97
2022-07-28T10:21:33.656Z,94909.50
2022-07-28T10:24:05.265Z,94901.41
2022-07-28T10:26:33.647Z,94900.44
2022-07-28T10:29:04.617Z,94899.72
2022-07-28T10:31:52.570Z,94901.44
2022-07-28T10:34:25.505Z,94900.72
2022-07-28T10:36:55.805Z,94901.47
2022-07-28T10:39:28.780Z,94901.22
2022-07-28T10:41:56.476Z,94907.34
2022-07-28T10:44:24.563Z,94882.03
2022-07-28T10:46:52.775Z,94890.16
2022-07-28T10:49:20.950Z,94888.72
2022-07-28T10:52:02.539Z,94892.38
2022-07-28T10:55:20.295Z,94898.56
2022-07-28T10:58:02.107Z,94893.09
2022-07-28T11:00:55.447Z,94883.03
2022-07-28T11:03:47.682Z,94887.22
2022-07-28T11:06:35.824Z,94874.66
2022-07-28T11:09:23.368Z,94876.88
2022-07-28T11:11:55.213Z,94871.47
2022-07-28T11:14:33.809Z,94878.59
2022-07-28T11:17:00.536Z,94875.88
2022-07-28T11:19:55.643Z,94888.91
2022-07-28T11:22:34.233Z,94870.97
2022-07-28T11:25:20.565Z,94876.34
2022-07-28T11:27:49.804Z,94875.84
2022-07-28T11:30:16.469Z,94871.69
2022-07-28T11:32:53.421Z,94865.78
2022-07-28T11:35:42.574Z,94871.56
2022-07-28T11:38:11.001Z,94865.63
2022-07-28T11:40:43.775Z,94866.34
2022-07-28T11:43:36.630Z,94864.88
2022-07-28T11:46:04.872Z,94860.88
2022-07-28T11:48:37.120Z,94857.75
2022-07-28T11:51:03.685Z,94862.50
2022-07-28T11:53:37.832Z,94858.31
2022-07-28T11:56:08.491Z,94847.19
2022-07-28T11:58:36.103Z,94858.56
2022-07-28T12:01:21.463Z,94846.97
2022-07-28T12:03:55.678Z,94852.00
2022-07-28T12:06:35.887Z,94853.97
2022-07-28T12:09:05.097Z,94856.03
2022-07-28T12:11:41.201Z,94850.75
2022-07-28T12:14:09.049Z,94853.09
2022-07-28T12:16:41.034Z,94846.69
2022-07-28T12:19:09.936Z,94846.78
2022-07-28T12:21:45.986Z,94846.00
2022-07-28T12:24:16.623Z,94835.63
2022-07-28T12:26:49.249Z,94827.78
2022-07-28T12:29:17.469Z,94824.50
2022-07-28T12:31:56.059Z,94840.09
2022-07-28T12:34:26.826Z,94835.31
2022-07-28T12:36:59.461Z,94836.59
2022-07-28T12:39:26.411Z,94825.09
2022-07-28T12:42:04.703Z,94832.00
2022-07-28T12:44:35.575Z,94823.72
2022-07-28T12:47:03.086Z,94826.44
2022-07-28T12:49:29.799Z,94819.03
2022-07-28T12:52:00.703Z,94827.03
2022-07-28T12:54:36.257Z,94823.78
2022-07-28T12:57:02.940Z,94830.75
2022-07-28T12:59:34.359Z,94814.72
2022-07-28T13:02:02.761Z,94818.97
2022-07-28T13:04:47.028Z,94821.84
2022-07-28T13:07:20.468Z,94814.22
2022-07-28T13:10:00.261Z,94814.66
2022-07-28T13:12:27.749Z,94813.28
2022-07-28T13:14:59.772Z,94799.41
2022-07-28T13:17:32.150Z,94806.16
2022-07-28T13:20:07.794Z,94798.06
2022-07-28T13:22:34.458Z,94795.69
2022-07-28T13:25:01.848Z,94802.00
2022-07-28T13:27:29.321Z,94802.47
2022-07-28T13:29:56.144Z,94796.56
2022-07-28T13:32:22.900Z,94797.19
2022-07-28T13:34:49.710Z,94790.66
2022-07-28T13:37:16.691Z,94790.34
2022-07-28T13:39:43.911Z,94784.91
2022-07-28T13:42:10.584Z,94775.97
2022-07-28T13:44:39.930Z,94781.03
2022-07-28T13:47:06.807Z,94770.00
2022-07-28T13:49:34.508Z,94772.94
2022-07-28T13:52:01.870Z,94771.16
2022-07-28T13:54:28.649Z,94780.00
2022-07-28T13:56:55.736Z,94776.66
2022-07-28T13:59:26.427Z,94780.47
2022-07-28T14:01:55.468Z,94773.72
2022-07-28T14:04:22.402Z,94765.97
2022-07-28T14:06:49.274Z,94769.06
2022-07-28T14:09:17.921Z,94766.16
2022-07-28T14:11:49.420Z,94763.16
2022-07-28T14:14:20.160Z,94762.13
2022-07-28T14:16:47.798Z,94756.28
2022-07-28T14:19:16.618Z,94761.72
2022-07-28T14:21:50.297Z,94754.81
2022-07-28T14:24:17.685Z,94753.72
2022-07-28T14:26:47.323Z,94744.91
2022-07-28T14:29:13.917Z,94733.59
2022-07-28T14:31:43.075Z,94748.56
2022-07-28T14:34:10.484Z,94739.53
2022-07-28T14:36:37.369Z,94734.06
2022-07-28T14:39:07.916Z,94721.06
2022-07-28T14:41:39.103Z,94731.34
2022-07-28T14:44:05.827Z,94737.66
2022-07-28T14:46:32.446Z,94737.25
2022-07-28T14:48:59.283Z,94734.69
2022-07-28T14:51:25.984Z,94727.19
2022-07-28T14:53:52.619Z,94734.66
2022-07-28T14:56:19.296Z,94736.91
2022-07-28T14:58:45.918Z,94721.38
2022-07-28T15:01:12.516Z,94716.25
2022-07-28T15:03:43.429Z,94710.22
2022-07-28T15:06:10.832Z,94717.47
2022-07-28T15:08:37.753Z,94706.41
2022-07-28T15:11:07.432Z,94715.78
2022-07-28T15:13:34.361Z,94718.34
2022-07-28T15:16:01.261Z,94720.75
2022-07-28T15:18:27.932Z,94728.94
2022-07-28T15:20:56.413Z,94725.28
2022-07-28T15:23:24.403Z,94726.84
2022-07-28T15:25:51.545Z,94716.69
2022-07-28T15:28:19.281Z,94727.91
2022-07-28T15:30:51.865Z,94740.91
2022-07-28T15:33:20.556Z,94738.97
2022-07-28T15:35:58.450Z,94738.28
2022-07-28T15:38:27.850Z,94736.13
2022-07-28T15:40:55.170Z,94732.97
2022-07-28T15:43:23.853Z,94733.22
2022-07-28T15:45:51.239Z,94736.19
2022-07-28T15:48:17.882Z,94729.22
2022-07-28T15:50:48.474Z,94722.03
2022-07-28T15:53:17.925Z,94725.69
2022-07-28T15:55:50.491Z,94710.25
2022-07-28T15:58:18.040Z,94708.09
2022-07-28T16:00:46.039Z,94715.75
2022-07-28T16:03:13.321Z,94709.13
2022-07-28T16:05:40.328Z,94717.88
2022-07-28T16:08:07.052Z,94699.50
2022-07-28T16:10:33.825Z,94694.38
2022-07-28T16:13:01.603Z,94690.13
2022-07-28T16:15:28.331Z,94699.34
2022-07-28T16:17:55.361Z,94703.22
2022-07-28T16:20:23.520Z,94700.69
2022-07-28T16:22:50.846Z,94702.56
2022-07-28T16:25:19.992Z,94709.19
2022-07-28T16:27:47.558Z,94713.25
2022-07-28T16:30:15.769Z,94720.81
2022-07-28T16:32:42.890Z,94718.66
2022-07-28T16:35:09.966Z,94735.91
2022-07-28T16:37:36.804Z,94745.09
2022-07-28T16:40:04.580Z,94741.16
2022-07-28T16:42:31.733Z,94753.84
2022-07-28T16:44:58.728Z,94755.16
2022-07-28T16:47:25.322Z,94764.25
2022-07-28T16:49:51.928Z,94762.13
2022-07-28T16:52:19.594Z,94778.38
2022-07-28T16:54:47.712Z,94778.03
2022-07-28T16:57:14.888Z,94778.28
2022-07-28T16:59:48.813Z,94784.56
2022-07-28T17:02:17.000Z,94783.69
2022-07-28T17:04:43.735Z,94775.28
2022-07-28T17:07:10.560Z,94776.78
2022-07-28T17:09:37.360Z,94777.81
2022-07-28T17:12:04.246Z,94784.88
2022-07-28T17:14:31.009Z,94776.97
2022-07-28T17:16:57.648Z,94787.13
2022-07-28T17:19:24.419Z,94787.44
2022-07-28T17:21:51.092Z,94787.84
2022-07-28T17:24:18.528Z,94794.44
2022-07-28T17:29:34.759Z,94803.75
2022-07-28T17:32:01.431Z,94797.72
2022-07-28T17:34:28.069Z,94803.50
2022-07-28T17:36:55.779Z,94798.28
2022-07-28T17:39:22.406Z,94795.94
2022-07-28T17:41:49.169Z,94795.81
2022-07-28T17:44:16.093Z,94798.88
2022-07-28T17:46:43.096Z,94801.13
2022-07-28T17:49:10.009Z,94796.53
2022-07-28T17:51:37.658Z,94806.94
2022-07-28T17:54:04.776Z,94808.66
2022-07-28T17:56:32.670Z,94805.53
2022-07-28T17:59:01.007Z,94819.31
2022-07-28T18:01:29.032Z,94809.56
2022-07-28T18:03:57.744Z,94809.56
2022-07-28T18:06:32.237Z,94820.41
2022-07-28T18:09:05.421Z,94825.16
2022-07-28T18:11:33.641Z,94816.69
2022-07-28T18:14:04.881Z,94806.41
2022-07-28T18:16:34.642Z,94825.84
2022-07-28T18:19:04.805Z,94821.44
2022-07-28T18:21:31.437Z,94822.69
2022-07-28T18:23:58.112Z,94835.97
2022-07-28T18:26:24.774Z,94822.72
2022-07-28T18:28:51.439Z,94815.16
2022-07-28T18:31:18.114Z,94818.34
2022-07-28T18:33:44.890Z,94804.03
2022-07-28T18:36:11.544Z,94818.56
2022-07-28T18:38:38.208Z,94817.34
2022-07-28T18:41:04.835Z,94839.97
2022-07-28T18:43:31.469Z,94854.22
2022-07-28T18:45:58.287Z,94861.31
2022-07-28T18:48:25.689Z,94870.59
2022-07-28T18:50:52.726Z,94873.97
2022-07-28T18:53:19.668Z,94870.03
2022-07-28T18:55:46.280Z,94877.34
2022-07-28T18:58:12.940Z,94892.00
2022-07-28T19:00:39.794Z,94897.03
2022-07-28T19:03:06.552Z,94887.88
2022-07-28T19:05:36.376Z,94938.41
2022-07-28T19:08:07.298Z,94969.00
2022-07-28T19:10:33.933Z,94977.88
2022-07-28T19:13:00.517Z,94986.63
2022-07-28T19:15:27.198Z,94985.94
2022-07-28T19:18:10.451Z,94946.94
2022-07-28T19:20:39.796Z,94975.06
2022-07-28T19:23:06.632Z,94964.56
2022-07-28T19:25:36.605Z,94974.59
2022-07-28T19:28:05.440Z,94971.25
2022-07-28T19:30:32.405Z,94966.31
2022-07-28T19:32:59.519Z,94957.81
2022-07-28T19:35:26.241Z,94962.59
2022-07-28T19:37:52.889Z,94984.78
2022-07-28T19:40:19.736Z,94988.38
2022-07-28T19:42:48.531Z,94992.38
2022-07-28T19:45:15.448Z,95007.84
2022-07-28T19:47:42.712Z,95014.44
2022-07-28T19:50:09.679Z,95025.34
2022-07-28T19:52:37.575Z,95041.59
2022-07-28T19:55:05.411Z,95051.06
2022-07-28T19:57:32.952Z,95064.25
2022-07-28T19:59:59.868Z,95062.66
2022-07-28T20:02:26.646Z,95057.50
2022-07-28T20:04:53.348Z,95063.09
2022-07-28T20:07:20.066Z,95073.16
2022-07-28T20:09:46.711Z,95072.91
2022-07-28T20:12:13.341Z,95080.78
2022-07-28T20:14:40.002Z,95087.44
2022-07-28T20:17:06.695Z,95091.69
2022-07-28T20:19:33.775Z,95075.31
2022-07-28T20:22:00.436Z,95066.31
2022-07-28T20:24:27.143Z,95047.16
2022-07-28T20:26:53.781Z,95042.31
2022-07-28T20:29:20.390Z,95039.31
2022-07-28T20:31:47.007Z,95052.00
2022-07-28T20:34:15.238Z,95057.88
2022-07-28T20:36:42.426Z,95066.22
2022-07-28T20:39:34.374Z,95070.97
2022-07-28T20:41:55.930Z,95064.75
2022-07-28T20:44:30.643Z,95068.06
2022-07-28T20:47:02.342Z,95069.56
2022-07-28T20:49:29.631Z,95085.94
2022-07-28T20:51:57.530Z,95095.47
2022-07-28T20:54:25.154Z,95091.63
2022-07-28T20:56:51.950Z,95109.19
2022-07-28T20:59:18.587Z,95112.31
2022-07-28T21:01:45.382Z,95098.78
2022-07-28T21:04:12.838Z,95107.72
2022-07-28T21:06:40.058Z,95104.13
2022-07-28T21:09:18.400Z,95106.19
2022-07-28T21:11:45.038Z,95089.22
2022-07-28T21:14:11.678Z,95110.50
2022-07-28T21:16:38.422Z,95112.41
2022-07-28T21:19:05.766Z,95099.16
2022-07-28T21:21:32.471Z,95111.22
2022-07-28T21:23:59.068Z,95115.81
2022-07-28T21:26:25.750Z,95122.34
2022-07-28T21:29:10.991Z,95106.13
2022-07-28T21:32:02.057Z,95112.09
2022-07-28T21:34:26.735Z,95110.88
2022-07-28T21:36:53.419Z,95112.97
2022-07-28T21:39:20.007Z,95115.19
2022-07-28T21:41:46.612Z,95126.03
2022-07-28T21:44:13.288Z,95128.06
2022-07-28T21:46:42.414Z,95134.00
2022-07-28T21:49:09.129Z,95118.47
2022-07-28T21:51:35.868Z,95126.75
2022-07-28T21:54:02.466Z,95128.03
2022-07-28T21:56:30.186Z,95128.28
2022-07-28T21:58:56.890Z,95122.00
2022-07-28T22:01:27.169Z,95118.47
2022-07-28T22:03:54.763Z,95111.72
2022-07-28T22:06:21.946Z,95121.34
2022-07-28T22:08:53.902Z,95129.59
2022-07-28T22:11:23.252Z,95129.00
2022-07-28T22:13:50.361Z,95112.94
2022-07-28T22:16:17.980Z,95118.28
2022-07-28T22:18:44.662Z,95116.09
2022-07-28T22:21:11.368Z,95103.72
2022-07-28T22:23:38.050Z,95098.31
2022-07-28T22:26:04.672Z,95107.22
2022-07-28T22:28:31.326Z,95117.03
2022-07-28T22:30:59.021Z,95097.06
2022-07-28T22:33:37.742Z,95116.69
2022-07-28T22:36:06.804Z,95129.50
2022-07-28T22:38:33.657Z,95128.00
2022-07-28T22:41:00.317Z,95136.22
2022-07-28T22:43:26.887Z,95121.84
2022-07-28T22:45:53.547Z,95131.28
2022-07-28T22:48:20.133Z,95122.84
2022-07-28T22:50:46.779Z,95125.66
2022-07-28T22:53:13.378Z,95124.16
2022-07-28T22:58:24.521Z,95110.19
2022-07-28T23:00:51.459Z,95111.38
2022-07-28T23:03:18.699Z,95110.06
2022-07-28T23:05:45.518Z,95118.28
2022-07-28T23:08:12.254Z,95114.13
2022-07-28T23:10:39.857Z,95097.25
2022-07-28T23:13:06.824Z,95090.97
2022-07-28T23:15:39.610Z,95114.16
2022-07-28T23:18:10.622Z,95116.97
2022-07-28T23:20:39.026Z,95104.78
2022-07-28T23:23:05.793Z,95108.97
2022-07-28T23:25:33.103Z,95097.78
2022-07-28T23:28:00.666Z,95105.38
2022-07-28T23:30:27.343Z,95091.72
2022-07-28T23:32:54.767Z,95094.41
2022-07-28T23:35:21.410Z,95089.59
2022-07-28T23:37:48.103Z,95084.53
2022-07-28T23:40:14.817Z,95074.56
2022-07-28T23:42:41.452Z,95082.75
2022-07-28T23:45:08.951Z,95080.09
2022-07-28T23:47:35.632Z,95070.56
2022-07-28T23:50:04.040Z,95066.16
2022-07-28T23:52:30.720Z,95081.06
2022-07-28T23:54:58.655Z,95072.16
2022-07-28T23:57:25.284Z,95078.22
2022-07-28T23:59:58.040Z,95082.22
